Kezdőlap
METAR-TAF:

METAR-TAF

Repülőterek :

Altus, Oklahoma, Amerikai Egyesült Államok

földrajzi szélesség: 34-41-55N, földrajzi hosszúság: 099-20-17W, magasság: 437 m

Jelenlegi meteorológiai megfigyelések

A jelentés 30 perccel ezelõtt készült, 02:35 UTC
Dél-délkeleti szél 11 kt
Hőmérséklet 30°C
Páratartalom 52%
Légköri nyomás 1017 hPa
Látótávolság: 16.1 km
Derült ég

METAR: KAXS 220235Z AUTO 16011KT 10SM CLR 30/19 A3003 RMK AO2

Idő: 22:05 (03:05 UTC)


TAF: hiányzik

Meteorológiai megfigyelések és előrejelzések több, mint 4000 repülőtéren (METAR és TAF jelentéseket).

A térképen piros és sárga pontok jelzik az elérhető meteorológiai állomásokat.

Mozgassa az egeret a pont fölött, hogy megjelenjen az állomás neve.

Azután kattintson az időjárási megfigyelések és előrejelzések megtekintéséhez.

A térkép megváltoztatása: kattintson a fekete keresztel jelölt zöld gombra ráközelítéshez, a vonallal jelölt zöld gombra távolításhoz, vagy a zöld nyilakra a szomszédos térképek eléréséhez.


METAR-TAF: